Airport View

Enter AWOS ICAO identifier for current METAR.

ex. KFNL

KPNM 261258Z AUTO 00000KT 10SM CLR 19/15 A2999 RMK AO2

26 Jun 2019 13:04

Frequency: 119.025

Phone: 763-389-0615

Other Area AWOS: KCBG - KSTC - KJMR - KMGG

TAF KSTC 261122Z 2612/2712 VRB03KT P6SM SCT250 FM261800 23005KT P6SM SCT200 FM270200 VRB03KT P6SM SCT150 FM271000 VRB03KT P6SM BKN150